SEBI

Registration No.

INH000000305

Ip Address Lookup

So far visitors:

customizable counter

TRIAL

TRIAL

SEND SMS FOR TRIAL

EQUITY - COMMODITY OR BOTH

TO

 09920033678

AND GET TRIAL

 


Information: COPPER (MCX): LOT SIZE CHANGED TO 2500 from 1000 (from JUL CONTRACT)

SEBI Registration No.: INH000000305 *****

* Commodity: 9500/month * Equity: 6000/month


* Gold Package: 7000 * Gold-Silver Package: 8100
*Crude-NG-Copper-Nickel Package: 6000


To See Past Performance, Click Here

For TRIAL / Registration,

click here

Past Performance >> Equity Tips
 
Search
 
Entry Start Date Entry End Date
Exit Start Date Exit End Date
Scrip Name Contract
Package
 

Packages: Precious Metals - Energy and Base Metals - Profit is calculated on basis of 1 lot per call

Package: Equity calls: Profit is calculated as follows:

1. If the scrip is in F & O then 1 lot is counted otherwise

2. Trade of Rs.1,50,000/- per call is counted.

 
Page: ( 1 2 3 4 5 6 7 8 9 10 11 12 13 14 15 16 17 18 19 20 21 22 23 24 25 26 27 28 29 30 31 32 33 34 35 36 37 38 39 40 41 42 43 44 45 46 47 48 49 50 51 52 53 54 55 56 57 58 59 60 61 62 63 64 65 66 67 68 69 70 71 72 73 74 75 76 77 78 79 80 81 82 83 84 85 86 87 88 89 90 91 92 93 94 95 96 97 98 99 100 101 102 103 104 105 106 107 108 109 110 111 112 113 114 ) [Current Page: 37]
Displaying 2701 to 2775   Calls
Entry Date Type Scrip Entry Price (Rs) T1
(Rs)
T2
(Rs)
T3
(Rs)
Stop Loss
(Rs)
Exit Date Exit Rate
(Rs)
Profit
(Rs)
 
18-12-15 Buy BIOCON 487 492 495 500 483 18-12-15 483 -4400.00 More
18-12-15 Buy NALCO 42 44 46 48/60 40.50 21-12-15 44 5000.00 More
18-12-15 Buy DLF 116.50 118 120 124 115 18-12-15 115 -7500.00 More
17-12-15 Sell TITAN 353 351 349 347 357 17-12-15 352 1500.00 More
17-12-15 Sell M&M 1210 1190 1180 1170 1220 17-12-15 1200 4000.00 More
17-12-15 Buy 64 66 68 72/78 60.50 22-12-15 66.90 4350.00 More
16-12-15 Buy TATA MOTORS 382 388 392 400 379 17-12-15 388 9000.00 More
16-12-15 Buy ARVIND 304 306 309 312 300 16-12-15 309.50 9350.00 More
16-12-15 Buy HDFC 1213 1218 1222 1235 1200 16-12-15 1223 4000.00 More
16-12-15 Buy VOLTAS 298 303 305 309 293 16-12-15 302.90 7840.00 More
16-12-15 Buy ESCORTS 157 161 164 169 152.50 17-12-15 161 3200.00 More
15-12-15 Buy SBI 225 235 245 255/265 220 17-12-15 232 8750.00 More
15-12-15 Buy Uflex 182.50 184.50 188 195 179 15-12-15 182 -262.50 More
15-12-15 Buy IRB Infra 237 239 241 244 234.50 15-12-15 239 4200.00 More
15-12-15 Buy PNB MARCH 120 CALL 843 848 852 860 837 15-12-15 854 6600.00 More
14-12-15 Buy ADANI ENT 75 85 95 100 70 15-12-15 80.50 33000.00 More
14-12-15 Buy IGL 488 492 495 505 475 14-12-15 475 -14300.00 More
14-12-15 Sell ONGC 215.20 213 211 209 217 14-12-15 213 4400.00 More
11-12-15 Buy NMDC 87 94 98 105 85 17-12-15 92.50 27500.00 More
11-12-15 Buy AURO PHARMA 813 818 822 828/835 800 11-12-15 824 7700.00 More
10-12-15 Sell Apollo Tyres 150 148 145 140 153 10-12-15 148.50 4500.00 More
10-12-15 Buy VEDL 83 90 95 105 75 17-12-15 92.75 39000.00 More
10-12-15 Buy HCC 23 27.50 29.50 32 19.50 24-12-15 27.10 20500.00 More
10-12-15 Buy PeninsulaLand 22.50 25.50 27.50 29.50 19.50 24-12-15 26.25 15000.00 More
09-12-15 Buy IGL 463 470 485 490 450 11-12-15 485 24200.00 More
09-12-15 Sell 315 310 305 300 321 09-12-15 310 6000.00 More
03-12-15 Buy JSWSteel 985 995 1005 1015/1025 960 03-12-15 1000 9000.00 More
02-12-15 Buy DEEPAKFERTILISER 160 165 170 175 150 08-12-15 150 -6000.00 More
02-12-15 Buy RComm 78.50 80 82 84/88 76.75 03-12-15 86 60000.00 More
02-12-15 Buy Coal India 345 350 355 360/370 340 02-12-15 340 -6000.00 More
02-12-15 Buy ANG IND 59 62 65 70/75 55 03-12-15 55 -6000.00 More
01-12-15 Buy AGAR IND 188 194 198 210 177 08-12-15 177 -6600.00 More
01-12-15 Buy M&M 1375 1384 1395 1400 1360 01-12-15 1382 2800.00 More
01-12-15 Buy IFCI 29 29.50 30.50 32.50 28.20 07-12-15 28.20 -16000.00 More
30-11-15 Buy PNB 147 149 151 153/155 144 02-12-15 144 -12000.00 More
27-11-15 Buy Reliance Power 53 56 59 62 50 08-12-15 50 -36000.00 More
27-11-15 Buy TATA MOTORS 427 431 435 438 415 02-12-15 415 -18000.00 More
26-11-15 Buy KOPRAN 72.50 74.50 76.50 80/85 66 01-12-15 80 11250.00 More
24-11-15 Buy ARVIND 302.50 306 309 314 297 24-11-15 297 -9350.00 More
23-11-15 Buy PETRONET 225 230 235 240 215 23-11-15 234.50 28500.00 More
20-11-15 Buy MAX 581 588 594 598 560 23-11-15 560 -21000.00 More
19-11-15 Buy TATA STEEL 229 232 235 238 225 20-11-15 232 6000.00 More
19-11-15 Buy E-LAND 38 42 44 50 32 20-11-15 46 20000.00 More
19-11-15 Buy IGL 462 474 478 485 450 20-11-15 485 25300.00 More
19-11-15 Buy HDFC 1188 1194 1198 1205 1175 19-11-15 1205 6800.00 More
18-11-15 Buy 306 308 310 312/314 303.50 20-11-15 330 33600.00 More
18-11-15 Buy MCLeod Russel 179 182 184 186 175 18-11-15 175 -8800.00 More
17-11-15 Buy M&M 1290 1300 1305 1325 1270 17-11-15 1297 2800.00 More
17-11-15 Buy 444 448 452 458/460 435 18-11-15 450 6000.00 More
16-11-15 Buy IGL 468 478 485 500 450 17-11-15 478 10000.00 More
16-11-15 Sell Ambuja Cement 191 189 187 185 194 16-11-15 194 -6300.00 More
16-11-15 Buy Renuka 12.80 13.50 14.70 18 11 17-11-15 15.75 23600.00 More
16-11-15 Buy BPCL 908 914 918 928 898 17-11-15 898 -6000.00 More
13-11-15 Sell RELIANCE CAPITAL 403 400 395 390 409 13-11-15 409 -9000.00 More
13-11-15 Buy SUN PHARMA 740 800 825 900 720 23-11-15 720 -12000.00 More
13-11-15 Buy Subex 9.50 13 14 16 8.50 26-11-15 13 35000.00 More
13-11-15 Buy IGL 465 472 478 485 450 13-11-15 471 6000.00 More
13-11-15 Sell HDFC 1168 1162 1160 1150 1180 13-11-15 1173 -2000.00 More
10-11-15 Buy 1130 1138 1144 1154 1124 10-11-15 1138 4800.00 More
10-11-15 Sell 1365 1355 1350 1325 1381 10-11-15 1355 3000.00 More
09-11-15 Buy DR REDDY 3515 3535 3560 3595 3495 10-11-15 3530 2250.00 More
09-11-15 Buy IGL 470 485 495 505 450 10-11-15 478 8000.00 More
09-11-15 Sell 1359 1350 1340 1330 1380 09-11-15 1355 1200.00 More
09-11-15 Sell BHEL 188.75 187 185 180 194 09-11-15 184 9500.00 More
06-11-15 Sell AXIS BANK 464 461 458 454 467 06-11-15 467 -3000.00 More
06-11-15 Sell BATA 461 457 450 445 478 06-11-15 458 3000.00 More
06-11-15 Buy ARVIND 280 283 286 289 277 06-11-15 277 -5100.00 More
05-11-15 Sell 805 800 795 790 812 05-11-15 812 -4200.00 More
05-11-15 Buy TATA MOTORS 407 410 413 416 405 05-11-15 411.50 6750.00 More
05-11-15 Sell 1380 1375 1372 1370/1350 1390 05-11-15 1375 1500.00 More
05-11-15 Buy CIPLA 675 680 685 690 668.50 05-11-15 668.50 -5200.00 More
04-11-15 Buy TECH MAH 554 560 570 575 550 04-11-15 550 -4000.00 More
04-11-15 Sell 1875 1868 1865 1850 1886 04-11-15 1886 -3300.00 More
04-11-15 Buy PETRONET 203 205 207 209 201 04-11-15 207 12000.00 More
04-11-15 Buy M&M 1246 1255 1265 1275 1226 04-11-15 1265 7600.00 More
Page wise profit 363527.50 Rs
Profit 27454075.50 Rs
TRIAL

TRIAL

SEND SMS FOR TRIAL

EQUITY - COMMODITY OR BOTH

TO

 09920033678

AND GET TRIAL